createdAt,value
2017-09-30T00:02:04.949Z,82.40
2017-09-30T00:04:34.231Z,82.20
2017-09-30T00:07:04.266Z,82.30
2017-09-30T00:09:33.525Z,82.20
2017-09-30T00:12:03.833Z,82.40
2017-09-30T00:14:33.101Z,82.30
2017-09-30T00:17:02.370Z,82.30
2017-09-30T00:19:31.631Z,82.20
2017-09-30T00:22:00.891Z,82.30
2017-09-30T00:24:30.201Z,82.20
2017-09-30T00:26:59.484Z,82.20
2017-09-30T00:29:28.739Z,82.40
2017-09-30T00:31:58.028Z,82.50
2017-09-30T00:34:27.277Z,82.40
2017-09-30T00:36:56.536Z,82.40
2017-09-30T00:39:25.877Z,82.10
2017-09-30T00:41:55.192Z,82.40
2017-09-30T00:44:24.495Z,82.50
2017-09-30T00:46:53.755Z,82.80
2017-09-30T00:49:23.014Z,83.30
2017-09-30T00:51:52.383Z,83.60
2017-09-30T00:54:21.637Z,83.70
2017-09-30T00:56:50.900Z,83.60
2017-09-30T00:59:20.183Z,83.70
2017-09-30T01:01:49.439Z,83.50
2017-09-30T01:04:18.683Z,83.20
2017-09-30T01:06:48.095Z,83.50
2017-09-30T01:09:17.340Z,84.10
2017-09-30T01:11:46.579Z,84.40
2017-09-30T01:14:16.004Z,84.50
2017-09-30T01:16:45.245Z,84.40
2017-09-30T01:19:14.504Z,84.60
2017-09-30T01:21:43.771Z,84.80
2017-09-30T01:24:13.791Z,84.90
2017-09-30T01:26:43.973Z,85.00
2017-09-30T01:29:13.219Z,84.80
2017-09-30T01:31:42.474Z,84.90
2017-09-30T01:34:12.652Z,85.00
2017-09-30T01:36:41.907Z,84.80
2017-09-30T01:39:11.144Z,84.70
2017-09-30T01:41:40.823Z,84.70
2017-09-30T01:44:10.070Z,84.70
2017-09-30T01:46:39.314Z,84.70
2017-09-30T01:49:08.579Z,85.60
2017-09-30T01:51:37.834Z,85.00
2017-09-30T01:54:08.016Z,84.60
2017-09-30T01:56:37.261Z,84.70
2017-09-30T01:59:07.410Z,84.80
2017-09-30T02:01:36.814Z,84.80
2017-09-30T02:04:06.061Z,84.60
2017-09-30T02:06:35.307Z,84.70
2017-09-30T02:09:04.554Z,84.80
2017-09-30T02:11:33.803Z,84.90
2017-09-30T02:14:03.067Z,85.00
2017-09-30T02:16:33.090Z,85.10
2017-09-30T02:19:03.124Z,84.90
2017-09-30T02:21:33.154Z,84.80
2017-09-30T02:24:02.399Z,84.80
2017-09-30T02:26:31.660Z,84.80
2017-09-30T02:29:00.931Z,85.50
2017-09-30T02:31:30.954Z,86.10
2017-09-30T02:34:00.974Z,86.10
2017-09-30T02:36:31.006Z,86.10
2017-09-30T02:39:00.258Z,86.20
2017-09-30T02:41:29.501Z,86.40
2017-09-30T02:43:58.795Z,86.70
2017-09-30T02:46:28.044Z,86.90
2017-09-30T02:48:57.291Z,86.80
2017-09-30T02:51:27.463Z,86.80
2017-09-30T02:53:56.716Z,86.80
2017-09-30T02:56:25.960Z,86.70
2017-09-30T02:58:55.228Z,86.60
2017-09-30T03:01:24.495Z,86.80
2017-09-30T03:03:53.755Z,86.80
2017-09-30T03:06:23.364Z,87.20
2017-09-30T03:08:52.613Z,87.40
2017-09-30T03:11:22.011Z,87.30
2017-09-30T03:13:51.274Z,87.20
2017-09-30T03:16:20.546Z,87.10
2017-09-30T03:18:49.800Z,87.00
2017-09-30T03:21:19.110Z,87.00
2017-09-30T03:23:49.164Z,86.80
2017-09-30T03:26:18.465Z,86.80
2017-09-30T03:28:47.703Z,87.00
2017-09-30T03:31:16.967Z,87.30
2017-09-30T03:33:46.354Z,87.70
2017-09-30T03:36:16.567Z,88.10
2017-09-30T03:38:46.605Z,88.00
2017-09-30T03:41:15.854Z,88.00
2017-09-30T03:43:45.103Z,88.10
2017-09-30T03:46:14.370Z,88.10
2017-09-30T03:48:43.621Z,88.10
2017-09-30T03:51:12.861Z,88.20
2017-09-30T03:53:42.303Z,88.00
2017-09-30T03:56:11.559Z,88.30
2017-09-30T03:58:46.628Z,88.90
2017-09-30T04:01:16.635Z,88.70
2017-09-30T04:03:45.927Z,88.80
2017-09-30T04:06:15.409Z,88.80
2017-09-30T04:08:44.668Z,88.80
2017-09-30T04:11:13.939Z,88.60
2017-09-30T04:13:43.955Z,88.40
2017-09-30T04:16:13.214Z,88.40
2017-09-30T04:18:43.343Z,88.20
2017-09-30T04:21:12.592Z,88.20
2017-09-30T04:23:41.843Z,88.10
2017-09-30T04:26:11.259Z,88.60
2017-09-30T04:28:40.506Z,88.60
2017-09-30T04:31:09.750Z,88.70
2017-09-30T04:33:39.008Z,88.50
2017-09-30T04:36:08.260Z,88.20
2017-09-30T04:38:54.889Z,88.30
2017-09-30T04:41:29.524Z,88.30
2017-09-30T04:44:09.784Z,88.40
2017-09-30T04:46:55.176Z,88.40
2017-09-30T04:49:46.599Z,88.20
2017-09-30T04:55:23.139Z,88.10
2017-09-30T04:58:04.165Z,88.10
2017-09-30T05:00:48.317Z,88.90
2017-09-30T05:03:23.681Z,89.30
2017-09-30T05:05:54.030Z,89.30
2017-09-30T05:08:23.536Z,89.30
2017-09-30T05:10:53.155Z,89.90
2017-09-30T05:13:22.889Z,90.00
2017-09-30T05:15:52.365Z,89.60
2017-09-30T05:18:22.668Z,89.20
2017-09-30T05:20:52.087Z,88.70
2017-09-30T05:23:22.325Z,87.90
2017-09-30T05:25:52.609Z,88.20
2017-09-30T05:28:26.250Z,88.30
2017-09-30T05:30:55.797Z,88.90
2017-09-30T05:33:26.522Z,89.30
2017-09-30T05:35:56.481Z,89.30
2017-09-30T05:38:25.946Z,89.40
2017-09-30T05:40:55.399Z,89.50
2017-09-30T05:43:24.920Z,89.70
2017-09-30T05:45:54.670Z,89.90
2017-09-30T05:48:27.026Z,89.40
2017-09-30T05:50:56.597Z,89.50
2017-09-30T05:53:28.036Z,89.20
2017-09-30T05:55:57.303Z,89.40
2017-09-30T05:58:26.563Z,89.30
2017-09-30T06:00:55.831Z,89.30
2017-09-30T06:03:25.779Z,89.30
2017-09-30T06:05:55.031Z,89.90
2017-09-30T06:08:24.282Z,89.00
2017-09-30T06:10:55.360Z,89.00
2017-09-30T06:13:25.311Z,88.80
2017-09-30T06:15:54.582Z,89.00
2017-09-30T06:18:24.671Z,89.40
2017-09-30T06:20:53.929Z,89.30
2017-09-30T06:23:23.236Z,89.40
2017-09-30T06:25:52.515Z,89.40
2017-09-30T06:28:22.539Z,89.00
2017-09-30T06:30:51.815Z,88.90
2017-09-30T06:33:21.076Z,88.70
2017-09-30T06:35:50.327Z,88.30
2017-09-30T06:38:22.243Z,88.70
2017-09-30T06:40:51.501Z,88.70
2017-09-30T06:43:27.582Z,88.60
2017-09-30T06:45:56.938Z,88.80
2017-09-30T06:48:33.202Z,88.90
2017-09-30T06:51:04.710Z,88.80
2017-09-30T06:57:02.485Z,88.20
2017-09-30T06:59:52.900Z,88.80
2017-09-30T07:02:25.888Z,88.50
2017-09-30T07:04:57.649Z,88.40
2017-09-30T07:07:31.755Z,89.40
2017-09-30T07:10:06.284Z,88.60
2017-09-30T07:12:36.255Z,88.20
2017-09-30T07:15:05.574Z,87.80
2017-09-30T07:17:36.432Z,87.90
2017-09-30T07:20:05.727Z,87.90
2017-09-30T07:22:35.649Z,87.70
2017-09-30T07:25:04.958Z,87.50
2017-09-30T07:27:34.976Z,87.80
2017-09-30T07:30:05.048Z,87.90
2017-09-30T07:32:34.709Z,87.80
2017-09-30T07:35:20.965Z,86.90
2017-09-30T07:38:00.247Z,86.80
2017-09-30T07:40:30.330Z,86.50
2017-09-30T07:43:01.375Z,86.00
2017-09-30T07:45:33.149Z,85.80
2017-09-30T07:48:04.729Z,86.80
2017-09-30T07:50:34.943Z,85.60
2017-09-30T07:53:10.601Z,85.10
2017-09-30T07:55:43.830Z,84.40
2017-09-30T07:58:20.848Z,84.30
2017-09-30T08:01:04.379Z,84.30
2017-09-30T08:03:35.922Z,83.80
2017-09-30T08:06:08.716Z,83.00
2017-09-30T08:08:40.197Z,83.50
2017-09-30T08:11:14.186Z,83.20
2017-09-30T08:13:44.005Z,82.90
2017-09-30T08:16:15.853Z,82.70
2017-09-30T08:18:46.314Z,83.20
2017-09-30T08:21:18.152Z,83.00
2017-09-30T08:23:48.293Z,82.60
2017-09-30T08:26:20.632Z,83.30
2017-09-30T08:29:13.061Z,82.70
2017-09-30T08:35:10.242Z,81.70
2017-09-30T08:38:01.889Z,81.00
2017-09-30T08:40:33.036Z,82.30
2017-09-30T08:43:03.460Z,81.80
2017-09-30T08:45:34.278Z,81.50
2017-09-30T08:48:04.425Z,81.40
2017-09-30T08:50:33.803Z,80.90
2017-09-30T08:53:03.243Z,81.20
2017-09-30T08:55:32.752Z,81.10
2017-09-30T08:58:02.031Z,80.90
2017-09-30T09:00:31.304Z,81.10
2017-09-30T09:03:01.568Z,80.00
2017-09-30T09:05:30.896Z,80.10
2017-09-30T09:08:00.403Z,78.90
2017-09-30T09:10:30.656Z,78.40
2017-09-30T09:13:00.303Z,78.30
2017-09-30T09:15:29.907Z,79.00
2017-09-30T09:17:59.641Z,76.50
2017-09-30T09:20:30.324Z,76.20
2017-09-30T09:23:01.207Z,77.30
2017-09-30T09:25:34.153Z,76.40
2017-09-30T09:28:04.161Z,76.50
2017-09-30T09:30:33.430Z,76.50
2017-09-30T09:33:03.515Z,74.60
2017-09-30T09:35:32.776Z,74.60
2017-09-30T09:38:02.037Z,74.60
2017-09-30T09:40:31.339Z,72.40
2017-09-30T09:43:00.588Z,73.60
2017-09-30T09:45:29.855Z,74.10
2017-09-30T09:47:59.984Z,72.50
2017-09-30T09:50:30.047Z,72.10
2017-09-30T09:53:00.189Z,71.90
2017-09-30T09:55:29.448Z,70.80
2017-09-30T09:57:58.707Z,71.80
2017-09-30T10:00:28.764Z,70.30
2017-09-30T10:02:58.015Z,69.40
2017-09-30T10:05:27.268Z,69.00
2017-09-30T10:07:56.549Z,69.90
2017-09-30T10:10:25.799Z,69.80
2017-09-30T10:12:55.120Z,69.30
2017-09-30T10:15:24.394Z,69.80
2017-09-30T10:17:53.713Z,68.20
2017-09-30T10:20:23.010Z,68.40
2017-09-30T10:22:52.267Z,68.40
2017-09-30T10:25:21.516Z,67.40
2017-09-30T10:27:50.783Z,68.20
2017-09-30T10:30:20.058Z,67.80
2017-09-30T10:32:49.303Z,65.20
2017-09-30T10:35:18.618Z,67.00
2017-09-30T10:37:47.867Z,66.60
2017-09-30T10:40:17.115Z,65.30
2017-09-30T10:42:46.421Z,66.20
2017-09-30T10:45:15.735Z,64.80
2017-09-30T10:47:45.782Z,64.90
2017-09-30T10:50:15.072Z,64.90
2017-09-30T10:52:44.316Z,64.20
2017-09-30T10:55:13.556Z,63.90
2017-09-30T10:57:43.606Z,61.40
2017-09-30T11:00:12.855Z,61.30
2017-09-30T11:02:42.099Z,61.40
2017-09-30T11:05:11.375Z,61.20
2017-09-30T11:07:41.394Z,59.10
2017-09-30T11:10:11.435Z,59.50
2017-09-30T11:12:40.683Z,59.40
2017-09-30T11:15:09.939Z,60.10
2017-09-30T11:17:39.386Z,59.50
2017-09-30T11:20:08.649Z,59.80
2017-09-30T11:22:37.903Z,60.20
2017-09-30T11:25:07.173Z,60.60
2017-09-30T11:27:36.411Z,60.30
2017-09-30T11:30:06.451Z,60.20
2017-09-30T11:32:35.700Z,60.20
2017-09-30T11:35:04.951Z,60.00
2017-09-30T11:37:34.238Z,59.40
2017-09-30T11:40:04.263Z,59.00
2017-09-30T11:42:33.575Z,59.00
2017-09-30T11:45:02.843Z,58.70
2017-09-30T11:47:32.091Z,58.60
2017-09-30T11:50:01.389Z,59.30
2017-09-30T11:52:30.627Z,59.10
2017-09-30T11:54:59.914Z,58.80
2017-09-30T11:57:29.352Z,58.80
2017-09-30T11:59:58.599Z,58.40
2017-09-30T12:02:27.840Z,58.50
2017-09-30T12:04:57.103Z,58.50
2017-09-30T12:07:26.346Z,58.20
2017-09-30T12:09:55.675Z,58.20
2017-09-30T12:12:24.924Z,57.90
2017-09-30T12:14:54.171Z,58.60
2017-09-30T12:17:25.167Z,57.30
2017-09-30T12:19:55.227Z,57.80
2017-09-30T12:22:24.515Z,58.00
2017-09-30T12:24:54.576Z,58.70
2017-09-30T12:27:23.827Z,58.10
2017-09-30T12:29:53.137Z,58.20
2017-09-30T12:32:23.250Z,58.30
2017-09-30T12:34:52.528Z,58.60
2017-09-30T12:37:21.788Z,59.20
2017-09-30T12:39:51.068Z,60.40
2017-09-30T12:42:21.079Z,61.00
2017-09-30T12:44:51.281Z,60.90
2017-09-30T12:47:20.534Z,60.90
2017-09-30T12:49:49.793Z,61.20
2017-09-30T12:52:20.027Z,61.80
2017-09-30T12:54:50.044Z,62.10
2017-09-30T12:57:20.121Z,61.70
2017-09-30T12:59:50.054Z,61.70
2017-09-30T13:02:19.316Z,60.80
2017-09-30T13:04:48.619Z,61.60
2017-09-30T13:07:17.873Z,62.00
2017-09-30T13:09:47.915Z,62.10
2017-09-30T13:12:17.936Z,62.50
2017-09-30T13:14:47.271Z,61.80
2017-09-30T13:17:16.675Z,63.80
2017-09-30T13:19:45.923Z,64.50
2017-09-30T13:22:15.852Z,64.40
2017-09-30T13:24:45.109Z,65.20
2017-09-30T13:27:14.362Z,65.60
2017-09-30T13:29:43.811Z,65.60
2017-09-30T13:32:13.067Z,65.90
2017-09-30T13:34:42.334Z,66.00
2017-09-30T13:37:11.808Z,66.70
2017-09-30T13:39:41.044Z,66.70
2017-09-30T13:42:10.306Z,67.10
2017-09-30T13:44:39.600Z,67.50
2017-09-30T13:47:08.879Z,66.80
2017-09-30T13:49:38.126Z,67.10
2017-09-30T13:52:08.539Z,67.00
2017-09-30T13:54:37.970Z,68.20
2017-09-30T13:57:07.191Z,67.30
2017-09-30T13:59:36.475Z,67.80
2017-09-30T14:02:06.274Z,67.80
2017-09-30T14:04:36.351Z,68.90
2017-09-30T14:07:05.604Z,68.30
2017-09-30T14:09:35.816Z,66.80
2017-09-30T14:12:05.865Z,67.20
2017-09-30T14:14:35.156Z,67.20
2017-09-30T14:17:04.402Z,67.50
2017-09-30T14:19:33.655Z,68.10
2017-09-30T14:22:03.721Z,67.70
2017-09-30T14:24:32.998Z,67.60
2017-09-30T14:27:02.720Z,67.70
2017-09-30T14:29:32.027Z,67.20
2017-09-30T14:32:01.283Z,67.90
2017-09-30T14:34:30.673Z,68.20
2017-09-30T14:37:01.388Z,68.40
2017-09-30T14:39:30.647Z,68.30
2017-09-30T14:41:59.982Z,68.30
2017-09-30T14:44:29.230Z,69.50
2017-09-30T14:46:58.523Z,68.70
2017-09-30T14:49:28.602Z,69.10
2017-09-30T14:51:58.117Z,69.10
2017-09-30T14:54:27.356Z,69.20
2017-09-30T14:56:56.608Z,69.10
2017-09-30T14:59:25.892Z,69.40
2017-09-30T15:01:55.171Z,69.20
2017-09-30T15:04:24.464Z,69.80
2017-09-30T15:06:53.716Z,70.00
2017-09-30T15:09:23.724Z,70.70
2017-09-30T15:11:53.567Z,71.00
2017-09-30T15:14:23.812Z,70.90
2017-09-30T15:16:56.533Z,70.80
2017-09-30T15:19:25.807Z,70.90
2017-09-30T15:21:55.056Z,71.00
2017-09-30T15:24:24.299Z,71.20
2017-09-30T15:26:53.591Z,71.80
2017-09-30T15:29:23.808Z,73.20
2017-09-30T15:31:53.838Z,74.50
2017-09-30T15:34:23.123Z,74.50
2017-09-30T15:36:53.139Z,76.50
2017-09-30T15:39:23.205Z,76.80
2017-09-30T15:41:52.443Z,76.80
2017-09-30T15:44:21.682Z,77.20
2017-09-30T15:46:50.979Z,77.50
2017-09-30T15:49:20.231Z,76.30
2017-09-30T15:51:49.482Z,75.90
2017-09-30T15:54:18.903Z,77.20
2017-09-30T15:56:48.172Z,79.20
2017-09-30T15:59:18.530Z,77.70
2017-09-30T16:01:47.968Z,77.70
2017-09-30T16:04:17.363Z,78.00
2017-09-30T16:06:47.596Z,79.10
2017-09-30T16:09:17.983Z,79.60
2017-09-30T16:11:47.432Z,79.20
2017-09-30T16:14:16.772Z,78.70
2017-09-30T16:16:46.638Z,79.30
2017-09-30T16:19:16.021Z,78.60
2017-09-30T16:21:45.259Z,79.50
2017-09-30T16:24:18.480Z,79.60
2017-09-30T16:26:47.875Z,79.20
2017-09-30T16:29:17.458Z,80.10
2017-09-30T16:31:46.829Z,80.20
2017-09-30T16:34:16.284Z,79.90
2017-09-30T16:36:45.709Z,80.50
2017-09-30T16:39:14.983Z,81.30
2017-09-30T16:41:44.224Z,81.40
2017-09-30T16:44:13.470Z,83.70
2017-09-30T16:46:42.797Z,81.10
2017-09-30T16:49:12.799Z,81.80
2017-09-30T16:51:42.065Z,81.80
2017-09-30T16:54:11.320Z,80.90
2017-09-30T16:56:40.574Z,82.40
2017-09-30T16:59:09.959Z,82.00
2017-09-30T17:01:39.299Z,80.90
2017-09-30T17:04:08.603Z,80.70
2017-09-30T17:06:38.905Z,79.60
2017-09-30T17:09:08.379Z,80.20
2017-09-30T17:11:37.769Z,81.00
2017-09-30T17:14:07.358Z,80.60
2017-09-30T17:16:36.768Z,80.70
2017-09-30T17:19:06.148Z,81.30
2017-09-30T17:21:35.575Z,81.10
2017-09-30T17:24:05.686Z,81.00
2017-09-30T17:26:34.986Z,81.00
2017-09-30T17:29:05.184Z,80.90
2017-09-30T17:31:34.423Z,80.80
2017-09-30T17:34:03.965Z,81.30
2017-09-30T17:36:33.385Z,82.20
2017-09-30T17:39:02.725Z,81.50
2017-09-30T17:41:32.998Z,81.90
2017-09-30T17:44:02.432Z,81.80
2017-09-30T17:46:31.771Z,82.10
2017-09-30T17:49:01.364Z,82.60
2017-09-30T17:51:30.840Z,82.00
2017-09-30T17:54:00.207Z,82.90
2017-09-30T17:56:29.629Z,83.00
2017-09-30T17:58:58.900Z,83.50
2017-09-30T18:01:28.194Z,82.90
2017-09-30T18:03:57.528Z,83.20
2017-09-30T18:06:28.127Z,83.40
2017-09-30T18:08:57.373Z,83.90
2017-09-30T18:11:31.637Z,82.70
2017-09-30T18:14:01.676Z,82.70
2017-09-30T18:16:30.917Z,84.00
2017-09-30T18:19:00.321Z,83.50
2017-09-30T18:21:29.595Z,84.20
2017-09-30T18:23:58.830Z,84.50
2017-09-30T18:26:28.075Z,84.10
2017-09-30T18:28:57.671Z,84.30
2017-09-30T18:31:26.903Z,84.40
2017-09-30T18:33:56.182Z,84.80
2017-09-30T18:36:25.512Z,84.60
2017-09-30T18:38:54.912Z,83.20
2017-09-30T18:41:24.234Z,82.40
2017-09-30T18:43:53.484Z,82.60
2017-09-30T18:46:22.727Z,82.50
2017-09-30T18:48:51.972Z,82.50
2017-09-30T18:51:21.248Z,82.00
2017-09-30T18:53:50.511Z,81.90
2017-09-30T18:56:19.896Z,82.10
2017-09-30T18:58:50.891Z,84.10
2017-09-30T19:01:20.207Z,83.40
2017-09-30T19:03:49.501Z,83.40
2017-09-30T19:06:18.939Z,83.80
2017-09-30T19:08:50.027Z,83.90
2017-09-30T19:11:20.367Z,83.10
2017-09-30T19:13:50.102Z,83.90
2017-09-30T19:16:19.374Z,83.90
2017-09-30T19:18:49.412Z,84.60
2017-09-30T19:21:18.719Z,84.60
2017-09-30T19:23:48.723Z,84.50
2017-09-30T19:26:18.918Z,83.60
2017-09-30T19:28:48.152Z,83.60
2017-09-30T19:31:17.386Z,84.60
2017-09-30T19:33:47.437Z,84.20
2017-09-30T19:36:16.683Z,84.10
2017-09-30T19:38:45.932Z,84.30
2017-09-30T19:41:15.198Z,85.00
2017-09-30T19:43:44.453Z,84.90
2017-09-30T19:46:14.505Z,85.80
2017-09-30T19:48:43.748Z,85.10
2017-09-30T19:51:13.004Z,84.90
2017-09-30T19:53:43.175Z,86.20
2017-09-30T19:56:12.415Z,86.10
2017-09-30T19:58:41.657Z,86.10
2017-09-30T20:01:11.079Z,86.10
2017-09-30T20:03:40.332Z,86.40
2017-09-30T20:06:09.572Z,86.70
2017-09-30T20:08:38.859Z,87.20
2017-09-30T20:11:08.096Z,86.00
2017-09-30T20:13:38.135Z,86.10
2017-09-30T20:16:07.437Z,86.10
2017-09-30T20:18:37.661Z,85.70
2017-09-30T20:21:07.696Z,85.70
2017-09-30T20:23:37.731Z,85.40
2017-09-30T20:26:06.988Z,85.30
2017-09-30T20:28:36.287Z,85.70
2017-09-30T20:31:06.537Z,86.00
2017-09-30T20:33:35.873Z,86.20
2017-09-30T20:36:05.384Z,86.90
2017-09-30T20:38:34.626Z,86.50
2017-09-30T20:41:03.872Z,85.40
2017-09-30T20:43:33.123Z,86.00
2017-09-30T20:46:02.387Z,87.20
2017-09-30T20:48:31.666Z,85.80
2017-09-30T20:51:00.947Z,86.10
2017-09-30T20:53:30.195Z,86.20
2017-09-30T20:55:59.476Z,85.10
2017-09-30T20:58:28.768Z,86.30
2017-09-30T21:00:58.014Z,86.50
2017-09-30T21:03:28.060Z,86.70
2017-09-30T21:05:57.297Z,86.70
2017-09-30T21:08:26.608Z,86.20
2017-09-30T21:10:55.960Z,86.40
2017-09-30T21:13:25.516Z,86.30
2017-09-30T21:15:54.772Z,87.20
2017-09-30T21:18:24.055Z,86.80
2017-09-30T21:20:53.295Z,87.20
2017-09-30T21:23:22.558Z,85.80
2017-09-30T21:25:51.809Z,85.40
2017-09-30T21:28:21.441Z,85.60
2017-09-30T21:30:50.950Z,85.90
2017-09-30T21:33:20.279Z,85.50
2017-09-30T21:35:49.600Z,85.80
2017-09-30T21:38:20.687Z,85.60
2017-09-30T21:40:49.939Z,87.00
2017-09-30T21:43:19.755Z,87.00
2017-09-30T21:45:49.314Z,86.50
2017-09-30T21:48:18.629Z,86.20
2017-09-30T21:50:48.763Z,86.40
2017-09-30T21:53:18.864Z,85.80
2017-09-30T21:55:49.752Z,85.80
2017-09-30T21:58:18.992Z,85.60
2017-09-30T22:00:49.031Z,86.30
2017-09-30T22:03:18.308Z,86.20
2017-09-30T22:05:48.880Z,86.90
2017-09-30T22:08:18.252Z,86.20
2017-09-30T22:10:47.609Z,85.70
2017-09-30T22:13:17.607Z,85.50
2017-09-30T22:15:46.865Z,85.50
2017-09-30T22:18:16.915Z,86.70
2017-09-30T22:20:46.175Z,86.70
2017-09-30T22:23:15.440Z,86.30
2017-09-30T22:25:44.716Z,86.20
2017-09-30T22:28:13.997Z,86.70
2017-09-30T22:30:44.088Z,87.00
2017-09-30T22:33:13.355Z,87.00
2017-09-30T22:35:42.642Z,87.20
2017-09-30T22:38:11.899Z,87.10
2017-09-30T22:40:41.130Z,86.90
2017-09-30T22:43:10.370Z,86.70
2017-09-30T22:45:39.639Z,87.00
2017-09-30T22:48:08.879Z,86.70
2017-09-30T22:50:38.163Z,86.60
2017-09-30T22:53:07.402Z,87.10
2017-09-30T22:55:36.644Z,86.30
2017-09-30T22:58:21.123Z,86.60
2017-09-30T23:00:53.192Z,86.70
2017-09-30T23:03:22.487Z,87.60
2017-09-30T23:05:51.813Z,88.00
2017-09-30T23:08:21.887Z,87.40
2017-09-30T23:10:51.130Z,87.50
2017-09-30T23:13:23.171Z,88.50
2017-09-30T23:15:52.393Z,88.00
2017-09-30T23:18:22.348Z,88.40
2017-09-30T23:20:51.635Z,88.50
2017-09-30T23:23:21.651Z,89.30
2017-09-30T23:25:50.973Z,89.20
2017-09-30T23:28:21.860Z,87.90
2017-09-30T23:30:51.895Z,87.90
2017-09-30T23:33:21.322Z,87.90
2017-09-30T23:35:52.188Z,87.30
2017-09-30T23:38:22.464Z,87.30
2017-09-30T23:40:51.858Z,87.70
2017-09-30T23:43:21.092Z,87.90
2017-09-30T23:45:50.360Z,87.70
2017-09-30T23:48:19.631Z,87.60
2017-09-30T23:50:48.932Z,88.20
2017-09-30T23:53:18.173Z,88.00
2017-09-30T23:55:48.251Z,88.20
2017-09-30T23:58:17.500Z,88.20
